This is the latest recevied weather packets stored in our database for station/object KG7DQI-13. If no packets are shown the sender has not sent any weather packets the latest 10 day(s).
| Time | Temp. | Humidity | Pressure | Rain* | Wind** | Luminosity | Snow |
|---|---|---|---|---|---|---|---|
| 1777840669 | 26.67° C | 30% | 911.8 hPa | 0 mm | - | 858 W/m² | - |
| 1777839756 | 26.11° C | 29% | 912 hPa | 0 mm | - | 860 W/m² | - |
| 1777838845 | 25.56° C | 32% | 912.1 hPa | 0 mm | - | 867 W/m² | - |
| 1777837953 | 25.56° C | 33% | 912.2 hPa | 0 mm | - | 865 W/m² | - |
| 1777837069 | 25° C | 35% | 912.6 hPa | 0 mm | - | 849 W/m² | - |
| 1777836123 | 24.44° C | 36% | 912.8 hPa | 0 mm | - | 856 W/m² | - |
| 1777835223 | 24.44° C | 36% | 912.8 hPa | 0 mm | - | 847 W/m² | - |
| 1777834305 | 24.44° C | 38% | 913.2 hPa | 0 mm | - | 833 W/m² | - |
| 1777833381 | 23.33° C | 38% | 913.2 hPa | 0 mm | - | 816 W/m² | - |
| 1777832438 | 22.78° C | 39% | 913.5 hPa | 0 mm | - | 789 W/m² | - |
| 1777831538 | 22.78° C | 40% | 913.6 hPa | 0 mm | - | 773 W/m² | - |
| 1777830673 | 22.22° C | 41% | 913.7 hPa | 0 mm | - | 749 W/m² | - |
| 1777829761 | 22.22° C | 41% | 913.8 hPa | 0 mm | - | 717 W/m² | - |
| 1777828891 | 21.67° C | 41% | 913.8 hPa | 0 mm | - | 675 W/m² | - |
| 1777827953 | 21.11° C | 43% | 913.8 hPa | 0 mm | - | 649 W/m² | - |
| 1777827083 | 20° C | 45% | 913.9 hPa | 0 mm | - | 622 W/m² | - |
| 1777826147 | 19.44° C | 47% | 914 hPa | 0 mm | - | 564 W/m² | - |
| 1777825231 | 18.89° C | 49% | 914.4 hPa | 0 mm | - | 508 W/m² | - |
| 1777824361 | 18.33° C | 50% | 914.5 hPa | 0 mm | - | 466 W/m² | - |
| 1777823425 | 17.78° C | 52% | 914.4 hPa | 0 mm | - | 427 W/m² | - |
| 1777822485 | 16.67° C | 57% | 914.3 hPa | 0 mm | - | 408 W/m² | - |
| 1777821563 | 15° C | 59% | 914.4 hPa | 0 mm | - | 360 W/m² | - |
| 1777820618 | 13.89° C | 63% | 914.6 hPa | 0 mm | - | 309 W/m² | - |
| 1777819712 | 11.67° C | 71% | 914.6 hPa | 0 mm | - | 265 W/m² | - |
| 1777818816 | 8.89° C | 80% | 914.5 hPa | 0 mm | - | 214 W/m² | - |
* Rain latest hour (hover to see other rain measurements)
** Current wind speed in m/s (hover to see current wind gust speed)